LPFL/FLW METAR and TAF weather

Enter ICAO airport designator
Station Type Date Time Source
LPFL METAR 2021/08/04 20:00 UTC NOAA

LPFL 042000Z 14003KT 080V210 9999 FEW022 26/20 Q1029


Station Type Date Time Source
LPFL Decoded METAR 2021/08/04 20:00 UTC NOAA

Flores Acores , Portugal (LPFL) 39-27N 031-08W 29M
Aug 04, 2021 - 04:00 PM EDT / 2021.08.04 2000 UTC
Wind: from the SE (140 degrees) at 3 MPH (3 KT) (direction variable):0
Visibility: greater than 7 mile(s):0
Sky conditions: mostly clear
Temperature: 78 F (26 C)
Dew Point: 68 F (20 C)
Relative Humidity: 69%
Pressure (altimeter): 30.39 in. Hg (1029 hPa)
ob: LPFL 042000Z 14003KT 080V210 9999 FEW022 26/20 Q1029
cycle: 20

Station Type Date Time Source
LPFL TAF UTC NOAA

Error!

Example: see airport list